sensor_id;sensor_type;location;lat;lon;timestamp;P1;durP1;ratioP1;P2;durP2;ratioP2
7074;SDS011;3578;51.568;6.932;2022-11-30T00:00:26;122.00;;;50.43;;
7074;SDS011;3578;51.568;6.932;2022-11-30T00:02:55;119.70;;;49.77;;
7074;SDS011;3578;51.568;6.932;2022-11-30T00:05:25;126.70;;;48.70;;
7074;SDS011;3578;51.568;6.932;2022-11-30T00:07:56;133.90;;;48.23;;
7074;SDS011;3578;51.568;6.932;2022-11-30T00:10:26;128.57;;;44.67;;
7074;SDS011;3578;51.568;6.932;2022-11-30T00:12:53;115.43;;;45.80;;
7074;SDS011;3578;51.568;6.932;2022-11-30T00:15:20;134.37;;;44.97;;
7074;SDS011;3578;51.568;6.932;2022-11-30T00:17:47;93.43;;;41.00;;
7074;SDS011;3578;51.568;6.932;2022-11-30T00:20:15;99.67;;;43.70;;
7074;SDS011;3578;51.568;6.932;2022-11-30T00:22:42;111.87;;;43.87;;
7074;SDS011;3578;51.568;6.932;2022-11-30T00:25:11;119.77;;;43.60;;
7074;SDS011;3578;51.568;6.932;2022-11-30T00:27:38;128.40;;;44.13;;
7074;SDS011;3578;51.568;6.932;2022-11-30T00:30:05;125.33;;;44.00;;
7074;SDS011;3578;51.568;6.932;2022-11-30T00:32:33;105.53;;;41.90;;
7074;SDS011;3578;51.568;6.932;2022-11-30T00:35:00;109.73;;;43.07;;
7074;SDS011;3578;51.568;6.932;2022-11-30T00:37:27;103.10;;;44.90;;
7074;SDS011;3578;51.568;6.932;2022-11-30T00:39:54;105.47;;;41.63;;
7074;SDS011;3578;51.568;6.932;2022-11-30T00:42:23;79.23;;;41.80;;
7074;SDS011;3578;51.568;6.932;2022-11-30T00:44:50;75.60;;;42.00;;
7074;SDS011;3578;51.568;6.932;2022-11-30T00:47:17;77.60;;;40.70;;
7074;SDS011;3578;51.568;6.932;2022-11-30T00:49:44;69.47;;;42.90;;
7074;SDS011;3578;51.568;6.932;2022-11-30T00:52:11;81.80;;;41.50;;
7074;SDS011;3578;51.568;6.932;2022-11-30T00:54:37;70.80;;;43.40;;
7074;SDS011;3578;51.568;6.932;2022-11-30T00:57:04;67.30;;;40.10;;
7074;SDS011;3578;51.568;6.932;2022-11-30T00:59:33;70.87;;;41.43;;
7074;SDS011;3578;51.568;6.932;2022-11-30T01:01:59;74.27;;;40.97;;
7074;SDS011;3578;51.568;6.932;2022-11-30T01:04:26;63.60;;;41.27;;
7074;SDS011;3578;51.568;6.932;2022-11-30T01:06:53;66.07;;;40.03;;
7074;SDS011;3578;51.568;6.932;2022-11-30T01:09:20;67.13;;;42.07;;
7074;SDS011;3578;51.568;6.932;2022-11-30T01:11:47;68.03;;;43.47;;
7074;SDS011;3578;51.568;6.932;2022-11-30T01:14:14;64.67;;;41.77;;
7074;SDS011;3578;51.568;6.932;2022-11-30T01:16:42;66.03;;;42.07;;
7074;SDS011;3578;51.568;6.932;2022-11-30T01:19:09;75.60;;;45.50;;
7074;SDS011;3578;51.568;6.932;2022-11-30T01:21:37;62.50;;;41.93;;
7074;SDS011;3578;51.568;6.932;2022-11-30T01:24:04;68.67;;;43.13;;
7074;SDS011;3578;51.568;6.932;2022-11-30T01:26:32;64.93;;;41.23;;
7074;SDS011;3578;51.568;6.932;2022-11-30T01:28:59;57.40;;;41.40;;
7074;SDS011;3578;51.568;6.932;2022-11-30T01:31:26;62.70;;;39.50;;
7074;SDS011;3578;51.568;6.932;2022-11-30T01:33:54;63.47;;;42.07;;
7074;SDS011;3578;51.568;6.932;2022-11-30T01:36:22;66.40;;;43.40;;
7074;SDS011;3578;51.568;6.932;2022-11-30T01:38:51;60.97;;;42.23;;
7074;SDS011;3578;51.568;6.932;2022-11-30T01:41:21;63.33;;;41.83;;
7074;SDS011;3578;51.568;6.932;2022-11-30T01:43:51;60.77;;;42.97;;
7074;SDS011;3578;51.568;6.932;2022-11-30T01:46:25;59.97;;;40.53;;
7074;SDS011;3578;51.568;6.932;2022-11-30T01:49:00;54.13;;;39.90;;
7074;SDS011;3578;51.568;6.932;2022-11-30T01:51:38;52.63;;;36.77;;
7074;SDS011;3578;51.568;6.932;2022-11-30T01:54:10;51.10;;;36.30;;
7074;SDS011;3578;51.568;6.932;2022-11-30T01:56:40;46.40;;;34.47;;
7074;SDS011;3578;51.568;6.932;2022-11-30T01:59:11;51.43;;;34.20;;
7074;SDS011;3578;51.568;6.932;2022-11-30T02:01:39;46.13;;;35.00;;
7074;SDS011;3578;51.568;6.932;2022-11-30T02:04:08;49.50;;;34.73;;
7074;SDS011;3578;51.568;6.932;2022-11-30T02:06:40;45.33;;;35.27;;
7074;SDS011;3578;51.568;6.932;2022-11-30T02:09:08;50.77;;;34.97;;
7074;SDS011;3578;51.568;6.932;2022-11-30T02:11:36;45.40;;;33.07;;
7074;SDS011;3578;51.568;6.932;2022-11-30T02:14:11;46.80;;;32.03;;
7074;SDS011;3578;51.568;6.932;2022-11-30T02:16:53;47.50;;;36.37;;
7074;SDS011;3578;51.568;6.932;2022-11-30T02:19:56;48.13;;;35.90;;
7074;SDS011;3578;51.568;6.932;2022-11-30T02:22:57;53.90;;;37.40;;
7074;SDS011;3578;51.568;6.932;2022-11-30T02:25:46;46.20;;;34.27;;
7074;SDS011;3578;51.568;6.932;2022-11-30T02:28:39;49.50;;;34.57;;
7074;SDS011;3578;51.568;6.932;2022-11-30T02:31:24;48.93;;;34.83;;
7074;SDS011;3578;51.568;6.932;2022-11-30T02:33:59;46.43;;;35.10;;
7074;SDS011;3578;51.568;6.932;2022-11-30T02:36:30;48.57;;;34.17;;
7074;SDS011;3578;51.568;6.932;2022-11-30T02:38:57;45.70;;;35.10;;
7074;SDS011;3578;51.568;6.932;2022-11-30T02:41:24;46.53;;;34.10;;
7074;SDS011;3578;51.568;6.932;2022-11-30T02:43:53;49.50;;;35.20;;
7074;SDS011;3578;51.568;6.932;2022-11-30T02:46:21;44.43;;;33.07;;
7074;SDS011;3578;51.568;6.932;2022-11-30T02:48:58;45.80;;;35.07;;
7074;SDS011;3578;51.568;6.932;2022-11-30T02:51:31;48.97;;;36.80;;
7074;SDS011;3578;51.568;6.932;2022-11-30T02:54:01;47.03;;;34.83;;
7074;SDS011;3578;51.568;6.932;2022-11-30T02:56:29;47.90;;;33.37;;
7074;SDS011;3578;51.568;6.932;2022-11-30T02:58:57;43.60;;;32.70;;
7074;SDS011;3578;51.568;6.932;2022-11-30T03:01:25;42.70;;;32.30;;
7074;SDS011;3578;51.568;6.932;2022-11-30T03:03:52;43.83;;;33.77;;
7074;SDS011;3578;51.568;6.932;2022-11-30T03:06:19;42.27;;;34.10;;
7074;SDS011;3578;51.568;6.932;2022-11-30T03:08:46;40.63;;;30.77;;
7074;SDS011;3578;51.568;6.932;2022-11-30T03:11:13;44.10;;;34.03;;
7074;SDS011;3578;51.568;6.932;2022-11-30T03:13:40;43.40;;;33.37;;
7074;SDS011;3578;51.568;6.932;2022-11-30T03:16:10;43.40;;;32.90;;
7074;SDS011;3578;51.568;6.932;2022-11-30T03:18:38;40.80;;;34.10;;
7074;SDS011;3578;51.568;6.932;2022-11-30T03:21:06;47.30;;;35.13;;
7074;SDS011;3578;51.568;6.932;2022-11-30T03:23:35;46.67;;;34.40;;
7074;SDS011;3578;51.568;6.932;2022-11-30T03:26:02;45.87;;;34.20;;
7074;SDS011;3578;51.568;6.932;2022-11-30T03:28:32;45.57;;;34.87;;
7074;SDS011;3578;51.568;6.932;2022-11-30T03:30:59;42.53;;;32.93;;
7074;SDS011;3578;51.568;6.932;2022-11-30T03:33:27;41.83;;;31.40;;
7074;SDS011;3578;51.568;6.932;2022-11-30T03:35:58;43.50;;;33.70;;
7074;SDS011;3578;51.568;6.932;2022-11-30T03:38:26;44.57;;;34.83;;
7074;SDS011;3578;51.568;6.932;2022-11-30T03:40:58;46.40;;;33.27;;
7074;SDS011;3578;51.568;6.932;2022-11-30T03:43:26;49.47;;;36.03;;
7074;SDS011;3578;51.568;6.932;2022-11-30T03:45:54;42.10;;;32.97;;
7074;SDS011;3578;51.568;6.932;2022-11-30T03:48:21;47.47;;;34.53;;
7074;SDS011;3578;51.568;6.932;2022-11-30T03:50:50;50.50;;;35.50;;
7074;SDS011;3578;51.568;6.932;2022-11-30T03:53:17;48.23;;;35.20;;
7074;SDS011;3578;51.568;6.932;2022-11-30T03:55:45;46.13;;;34.23;;
7074;SDS011;3578;51.568;6.932;2022-11-30T03:58:18;48.80;;;37.70;;
7074;SDS011;3578;51.568;6.932;2022-11-30T04:00:46;49.97;;;37.10;;
7074;SDS011;3578;51.568;6.932;2022-11-30T04:03:13;48.00;;;36.37;;
7074;SDS011;3578;51.568;6.932;2022-11-30T04:05:40;52.10;;;36.73;;
7074;SDS011;3578;51.568;6.932;2022-11-30T04:08:08;49.97;;;35.83;;
7074;SDS011;3578;51.568;6.932;2022-11-30T04:10:35;52.03;;;38.57;;
7074;SDS011;3578;51.568;6.932;2022-11-30T04:13:02;52.90;;;37.23;;
7074;SDS011;3578;51.568;6.932;2022-11-30T04:15:29;47.87;;;35.73;;
7074;SDS011;3578;51.568;6.932;2022-11-30T04:17:56;48.97;;;36.70;;
7074;SDS011;3578;51.568;6.932;2022-11-30T04:20:23;49.57;;;37.60;;
7074;SDS011;3578;51.568;6.932;2022-11-30T04:22:50;43.93;;;34.70;;
7074;SDS011;3578;51.568;6.932;2022-11-30T04:25:18;46.60;;;35.30;;
7074;SDS011;3578;51.568;6.932;2022-11-30T04:27:45;50.00;;;35.13;;
7074;SDS011;3578;51.568;6.932;2022-11-30T04:30:12;46.63;;;34.13;;
7074;SDS011;3578;51.568;6.932;2022-11-30T04:32:40;50.40;;;36.03;;
7074;SDS011;3578;51.568;6.932;2022-11-30T04:35:07;47.00;;;34.30;;
7074;SDS011;3578;51.568;6.932;2022-11-30T04:37:35;47.87;;;36.50;;
7074;SDS011;3578;51.568;6.932;2022-11-30T04:40:03;47.37;;;34.47;;
7074;SDS011;3578;51.568;6.932;2022-11-30T04:42:33;46.97;;;35.00;;
7074;SDS011;3578;51.568;6.932;2022-11-30T04:45:00;46.77;;;35.17;;
7074;SDS011;3578;51.568;6.932;2022-11-30T04:47:27;43.17;;;35.07;;
7074;SDS011;3578;51.568;6.932;2022-11-30T04:49:53;45.90;;;34.70;;
7074;SDS011;3578;51.568;6.932;2022-11-30T04:52:20;43.80;;;33.40;;
7074;SDS011;3578;51.568;6.932;2022-11-30T04:54:47;44.20;;;34.23;;
7074;SDS011;3578;51.568;6.932;2022-11-30T04:57:15;47.63;;;35.10;;
7074;SDS011;3578;51.568;6.932;2022-11-30T04:59:44;43.63;;;33.13;;
7074;SDS011;3578;51.568;6.932;2022-11-30T05:02:10;42.90;;;33.30;;
7074;SDS011;3578;51.568;6.932;2022-11-30T05:04:37;46.77;;;33.50;;
7074;SDS011;3578;51.568;6.932;2022-11-30T05:07:04;44.43;;;34.37;;
7074;SDS011;3578;51.568;6.932;2022-11-30T05:09:32;42.90;;;32.90;;
7074;SDS011;3578;51.568;6.932;2022-11-30T05:11:59;40.27;;;32.17;;
7074;SDS011;3578;51.568;6.932;2022-11-30T05:14:26;40.97;;;32.70;;
7074;SDS011;3578;51.568;6.932;2022-11-30T05:16:55;40.90;;;30.77;;
7074;SDS011;3578;51.568;6.932;2022-11-30T05:19:21;41.23;;;31.63;;
7074;SDS011;3578;51.568;6.932;2022-11-30T05:21:48;44.30;;;33.23;;
7074;SDS011;3578;51.568;6.932;2022-11-30T05:24:15;40.27;;;31.47;;
7074;SDS011;3578;51.568;6.932;2022-11-30T05:26:42;44.77;;;32.97;;
7074;SDS011;3578;51.568;6.932;2022-11-30T05:29:09;39.60;;;32.27;;
7074;SDS011;3578;51.568;6.932;2022-11-30T05:31:36;41.50;;;33.07;;
7074;SDS011;3578;51.568;6.932;2022-11-30T05:34:06;41.70;;;32.30;;
7074;SDS011;3578;51.568;6.932;2022-11-30T05:36:33;43.50;;;32.17;;
7074;SDS011;3578;51.568;6.932;2022-11-30T05:39:00;43.90;;;32.53;;
7074;SDS011;3578;51.568;6.932;2022-11-30T05:41:27;44.20;;;33.03;;
7074;SDS011;3578;51.568;6.932;2022-11-30T05:43:54;45.13;;;33.70;;
7074;SDS011;3578;51.568;6.932;2022-11-30T05:46:22;40.17;;;30.90;;
7074;SDS011;3578;51.568;6.932;2022-11-30T05:48:49;41.70;;;31.37;;
7074;SDS011;3578;51.568;6.932;2022-11-30T05:51:17;45.47;;;34.60;;
7074;SDS011;3578;51.568;6.932;2022-11-30T05:53:45;41.30;;;31.70;;
7074;SDS011;3578;51.568;6.932;2022-11-30T05:56:14;44.13;;;32.33;;
7074;SDS011;3578;51.568;6.932;2022-11-30T05:58:44;40.63;;;32.60;;
7074;SDS011;3578;51.568;6.932;2022-11-30T06:01:16;43.07;;;33.87;;
7074;SDS011;3578;51.568;6.932;2022-11-30T06:03:44;42.47;;;33.50;;
7074;SDS011;3578;51.568;6.932;2022-11-30T06:06:11;43.93;;;33.07;;
7074;SDS011;3578;51.568;6.932;2022-11-30T06:08:40;42.67;;;32.33;;
7074;SDS011;3578;51.568;6.932;2022-11-30T06:11:07;43.07;;;32.67;;
7074;SDS011;3578;51.568;6.932;2022-11-30T06:13:34;42.83;;;32.60;;
7074;SDS011;3578;51.568;6.932;2022-11-30T06:16:02;43.07;;;32.90;;
7074;SDS011;3578;51.568;6.932;2022-11-30T06:18:30;44.13;;;33.07;;
7074;SDS011;3578;51.568;6.932;2022-11-30T06:21:00;46.17;;;33.53;;
7074;SDS011;3578;51.568;6.932;2022-11-30T06:23:28;44.60;;;33.17;;
7074;SDS011;3578;51.568;6.932;2022-11-30T06:25:56;44.37;;;33.20;;
7074;SDS011;3578;51.568;6.932;2022-11-30T06:28:23;42.17;;;33.30;;
7074;SDS011;3578;51.568;6.932;2022-11-30T06:30:50;41.70;;;34.20;;
7074;SDS011;3578;51.568;6.932;2022-11-30T06:33:20;43.47;;;34.27;;
7074;SDS011;3578;51.568;6.932;2022-11-30T06:35:48;42.20;;;34.20;;
7074;SDS011;3578;51.568;6.932;2022-11-30T06:38:15;41.30;;;31.77;;
7074;SDS011;3578;51.568;6.932;2022-11-30T06:40:42;44.27;;;32.53;;
7074;SDS011;3578;51.568;6.932;2022-11-30T06:43:11;43.30;;;33.60;;
7074;SDS011;3578;51.568;6.932;2022-11-30T06:45:39;42.33;;;33.30;;
7074;SDS011;3578;51.568;6.932;2022-11-30T06:48:08;40.13;;;31.40;;
7074;SDS011;3578;51.568;6.932;2022-11-30T06:50:35;39.30;;;30.97;;
7074;SDS011;3578;51.568;6.932;2022-11-30T06:53:03;42.87;;;33.50;;
7074;SDS011;3578;51.568;6.932;2022-11-30T06:55:30;44.27;;;33.20;;
7074;SDS011;3578;51.568;6.932;2022-11-30T06:58:03;42.97;;;33.23;;
7074;SDS011;3578;51.568;6.932;2022-11-30T07:00:33;46.70;;;34.60;;
7074;SDS011;3578;51.568;6.932;2022-11-30T07:03:00;43.20;;;32.00;;
7074;SDS011;3578;51.568;6.932;2022-11-30T07:05:29;47.20;;;35.20;;
7074;SDS011;3578;51.568;6.932;2022-11-30T07:07:59;44.80;;;34.27;;
7074;SDS011;3578;51.568;6.932;2022-11-30T07:10:26;42.53;;;33.80;;
7074;SDS011;3578;51.568;6.932;2022-11-30T07:12:53;43.83;;;33.80;;
7074;SDS011;3578;51.568;6.932;2022-11-30T07:15:20;40.93;;;32.77;;
7074;SDS011;3578;51.568;6.932;2022-11-30T07:17:48;46.47;;;36.27;;
7074;SDS011;3578;51.568;6.932;2022-11-30T07:20:15;45.80;;;34.80;;
7074;SDS011;3578;51.568;6.932;2022-11-30T07:22:42;44.17;;;33.57;;
7074;SDS011;3578;51.568;6.932;2022-11-30T07:25:09;51.13;;;36.57;;
7074;SDS011;3578;51.568;6.932;2022-11-30T07:27:54;45.20;;;34.93;;
7074;SDS011;3578;51.568;6.932;2022-11-30T07:30:21;46.57;;;35.50;;
7074;SDS011;3578;51.568;6.932;2022-11-30T07:32:49;43.83;;;34.33;;
7074;SDS011;3578;51.568;6.932;2022-11-30T07:35:16;41.40;;;32.70;;
7074;SDS011;3578;51.568;6.932;2022-11-30T07:37:43;47.10;;;33.57;;
7074;SDS011;3578;51.568;6.932;2022-11-30T07:40:10;41.43;;;32.60;;
7074;SDS011;3578;51.568;6.932;2022-11-30T07:42:38;40.77;;;32.40;;
7074;SDS011;3578;51.568;6.932;2022-11-30T07:45:06;44.33;;;33.67;;
7074;SDS011;3578;51.568;6.932;2022-11-30T07:47:34;44.43;;;32.50;;
7074;SDS011;3578;51.568;6.932;2022-11-30T07:50:02;49.70;;;34.57;;
7074;SDS011;3578;51.568;6.932;2022-11-30T07:52:30;44.60;;;35.30;;
7074;SDS011;3578;51.568;6.932;2022-11-30T07:54:57;51.50;;;34.87;;
7074;SDS011;3578;51.568;6.932;2022-11-30T07:57:24;42.43;;;32.97;;
7074;SDS011;3578;51.568;6.932;2022-11-30T07:59:50;44.60;;;34.10;;
7074;SDS011;3578;51.568;6.932;2022-11-30T08:02:18;44.63;;;34.30;;
7074;SDS011;3578;51.568;6.932;2022-11-30T08:04:44;43.67;;;35.03;;
7074;SDS011;3578;51.568;6.932;2022-11-30T08:07:13;45.33;;;34.53;;
7074;SDS011;3578;51.568;6.932;2022-11-30T08:09:40;44.40;;;34.80;;
7074;SDS011;3578;51.568;6.932;2022-11-30T08:12:06;45.00;;;34.47;;
7074;SDS011;3578;51.568;6.932;2022-11-30T08:14:33;42.40;;;33.60;;
7074;SDS011;3578;51.568;6.932;2022-11-30T08:17:00;42.60;;;33.17;;
7074;SDS011;3578;51.568;6.932;2022-11-30T08:19:27;47.67;;;34.50;;
7074;SDS011;3578;51.568;6.932;2022-11-30T08:21:54;46.70;;;34.93;;
7074;SDS011;3578;51.568;6.932;2022-11-30T08:24:22;48.23;;;35.67;;
7074;SDS011;3578;51.568;6.932;2022-11-30T08:26:50;46.80;;;34.93;;
7074;SDS011;3578;51.568;6.932;2022-11-30T08:29:18;50.50;;;35.10;;
7074;SDS011;3578;51.568;6.932;2022-11-30T08:31:45;47.20;;;34.83;;
7074;SDS011;3578;51.568;6.932;2022-11-30T08:34:12;44.03;;;34.57;;
7074;SDS011;3578;51.568;6.932;2022-11-30T08:36:39;46.80;;;34.90;;
7074;SDS011;3578;51.568;6.932;2022-11-30T08:39:09;45.20;;;34.67;;
7074;SDS011;3578;51.568;6.932;2022-11-30T08:41:39;45.47;;;35.30;;
7074;SDS011;3578;51.568;6.932;2022-11-30T08:44:06;43.17;;;34.13;;
7074;SDS011;3578;51.568;6.932;2022-11-30T08:46:33;42.50;;;34.57;;
7074;SDS011;3578;51.568;6.932;2022-11-30T08:49:01;46.50;;;35.63;;
7074;SDS011;3578;51.568;6.932;2022-11-30T08:51:29;40.53;;;32.43;;
7074;SDS011;3578;51.568;6.932;2022-11-30T08:53:56;46.33;;;36.03;;
7074;SDS011;3578;51.568;6.932;2022-11-30T08:56:23;45.73;;;34.10;;
7074;SDS011;3578;51.568;6.932;2022-11-30T08:58:51;47.87;;;35.30;;
7074;SDS011;3578;51.568;6.932;2022-11-30T09:01:20;48.93;;;37.03;;
7074;SDS011;3578;51.568;6.932;2022-11-30T09:03:51;47.77;;;35.97;;
7074;SDS011;3578;51.568;6.932;2022-11-30T09:06:20;47.33;;;34.20;;
7074;SDS011;3578;51.568;6.932;2022-11-30T09:08:50;48.07;;;35.93;;
7074;SDS011;3578;51.568;6.932;2022-11-30T09:11:20;45.53;;;36.00;;
7074;SDS011;3578;51.568;6.932;2022-11-30T09:13:52;50.43;;;36.67;;
7074;SDS011;3578;51.568;6.932;2022-11-30T09:16:23;48.83;;;37.40;;
7074;SDS011;3578;51.568;6.932;2022-11-30T09:18:50;49.30;;;36.00;;
7074;SDS011;3578;51.568;6.932;2022-11-30T09:21:18;49.10;;;35.83;;
7074;SDS011;3578;51.568;6.932;2022-11-30T09:23:48;46.87;;;35.10;;
7074;SDS011;3578;51.568;6.932;2022-11-30T09:26:17;47.57;;;34.73;;
7074;SDS011;3578;51.568;6.932;2022-11-30T09:28:47;51.23;;;38.10;;
7074;SDS011;3578;51.568;6.932;2022-11-30T09:31:16;51.60;;;36.67;;
7074;SDS011;3578;51.568;6.932;2022-11-30T09:33:45;47.60;;;34.37;;
7074;SDS011;3578;51.568;6.932;2022-11-30T09:36:13;46.70;;;34.90;;
7074;SDS011;3578;51.568;6.932;2022-11-30T09:38:43;46.47;;;35.67;;
7074;SDS011;3578;51.568;6.932;2022-11-30T09:41:25;52.17;;;36.17;;
7074;SDS011;3578;51.568;6.932;2022-11-30T09:44:15;49.40;;;37.30;;
7074;SDS011;3578;51.568;6.932;2022-11-30T09:46:53;49.87;;;36.37;;
7074;SDS011;3578;51.568;6.932;2022-11-30T09:49:28;51.87;;;37.37;;
7074;SDS011;3578;51.568;6.932;2022-11-30T09:51:57;47.43;;;34.73;;
7074;SDS011;3578;51.568;6.932;2022-11-30T09:54:30;46.90;;;36.70;;
7074;SDS011;3578;51.568;6.932;2022-11-30T09:57:03;52.27;;;37.07;;
7074;SDS011;3578;51.568;6.932;2022-11-30T09:59:45;47.63;;;35.43;;
7074;SDS011;3578;51.568;6.932;2022-11-30T10:02:20;50.03;;;36.60;;
7074;SDS011;3578;51.568;6.932;2022-11-30T10:04:53;48.83;;;35.87;;
7074;SDS011;3578;51.568;6.932;2022-11-30T10:07:25;55.10;;;38.10;;
7074;SDS011;3578;51.568;6.932;2022-11-30T10:10:11;52.33;;;36.07;;
7074;SDS011;3578;51.568;6.932;2022-11-30T10:12:50;49.17;;;36.70;;
7074;SDS011;3578;51.568;6.932;2022-11-30T10:15:29;51.57;;;36.40;;
7074;SDS011;3578;51.568;6.932;2022-11-30T10:18:09;50.10;;;36.17;;
7074;SDS011;3578;51.568;6.932;2022-11-30T10:20:54;51.80;;;37.97;;
7074;SDS011;3578;51.568;6.932;2022-11-30T10:23:35;50.47;;;36.30;;
7074;SDS011;3578;51.568;6.932;2022-11-30T10:26:25;50.00;;;34.67;;
7074;SDS011;3578;51.568;6.932;2022-11-30T10:28:59;46.17;;;34.30;;
7074;SDS011;3578;51.568;6.932;2022-11-30T10:31:36;50.50;;;34.53;;
7074;SDS011;3578;51.568;6.932;2022-11-30T10:34:11;46.03;;;33.80;;
7074;SDS011;3578;51.568;6.932;2022-11-30T10:36:46;50.23;;;34.90;;
7074;SDS011;3578;51.568;6.932;2022-11-30T10:39:20;47.70;;;34.23;;
7074;SDS011;3578;51.568;6.932;2022-11-30T10:41:54;47.00;;;34.77;;
7074;SDS011;3578;51.568;6.932;2022-11-30T10:44:29;49.20;;;35.50;;
7074;SDS011;3578;51.568;6.932;2022-11-30T10:47:04;50.13;;;35.57;;
7074;SDS011;3578;51.568;6.932;2022-11-30T10:49:43;51.07;;;35.67;;
7074;SDS011;3578;51.568;6.932;2022-11-30T10:52:17;47.07;;;34.13;;
7074;SDS011;3578;51.568;6.932;2022-11-30T10:54:49;48.20;;;34.07;;
7074;SDS011;3578;51.568;6.932;2022-11-30T10:57:20;55.40;;;36.00;;
7074;SDS011;3578;51.568;6.932;2022-11-30T10:59:49;48.20;;;36.10;;
7074;SDS011;3578;51.568;6.932;2022-11-30T11:02:33;49.47;;;36.40;;
7074;SDS011;3578;51.568;6.932;2022-11-30T11:05:11;49.23;;;34.27;;
7074;SDS011;3578;51.568;6.932;2022-11-30T11:07:50;48.97;;;35.00;;
7074;SDS011;3578;51.568;6.932;2022-11-30T11:10:21;48.10;;;34.87;;
7074;SDS011;3578;51.568;6.932;2022-11-30T11:12:55;47.87;;;35.33;;
7074;SDS011;3578;51.568;6.932;2022-11-30T11:15:23;47.70;;;33.70;;
7074;SDS011;3578;51.568;6.932;2022-11-30T11:17:52;56.67;;;37.47;;
7074;SDS011;3578;51.568;6.932;2022-11-30T11:20:46;48.77;;;36.00;;
7074;SDS011;3578;51.568;6.932;2022-11-30T11:23:19;46.27;;;33.87;;
7074;SDS011;3578;51.568;6.932;2022-11-30T11:25:49;54.67;;;36.17;;
7074;SDS011;3578;51.568;6.932;2022-11-30T11:28:17;47.80;;;34.80;;
7074;SDS011;3578;51.568;6.932;2022-11-30T11:30:46;51.13;;;35.33;;
7074;SDS011;3578;51.568;6.932;2022-11-30T11:33:18;54.50;;;35.00;;
7074;SDS011;3578;51.568;6.932;2022-11-30T11:35:49;53.40;;;36.27;;
7074;SDS011;3578;51.568;6.932;2022-11-30T11:38:18;50.30;;;36.73;;
7074;SDS011;3578;51.568;6.932;2022-11-30T11:40:51;51.00;;;35.37;;
7074;SDS011;3578;51.568;6.932;2022-11-30T11:43:24;54.60;;;35.63;;
7074;SDS011;3578;51.568;6.932;2022-11-30T11:45:55;54.50;;;36.60;;
7074;SDS011;3578;51.568;6.932;2022-11-30T11:48:28;48.07;;;34.47;;
7074;SDS011;3578;51.568;6.932;2022-11-30T11:51:01;49.27;;;34.23;;
7074;SDS011;3578;51.568;6.932;2022-11-30T11:53:36;50.73;;;35.33;;
7074;SDS011;3578;51.568;6.932;2022-11-30T11:56:11;52.43;;;34.70;;
7074;SDS011;3578;51.568;6.932;2022-11-30T11:58:45;45.70;;;34.07;;
7074;SDS011;3578;51.568;6.932;2022-11-30T12:01:18;52.20;;;35.53;;
7074;SDS011;3578;51.568;6.932;2022-11-30T12:04:04;50.03;;;33.90;;
7074;SDS011;3578;51.568;6.932;2022-11-30T12:06:44;49.23;;;33.37;;
7074;SDS011;3578;51.568;6.932;2022-11-30T12:09:15;47.27;;;34.00;;
7074;SDS011;3578;51.568;6.932;2022-11-30T12:11:49;46.50;;;33.60;;
7074;SDS011;3578;51.568;6.932;2022-11-30T12:14:17;41.50;;;32.07;;
7074;SDS011;3578;51.568;6.932;2022-11-30T12:16:57;40.00;;;30.50;;
7074;SDS011;3578;51.568;6.932;2022-11-30T12:19:53;41.50;;;30.10;;
7074;SDS011;3578;51.568;6.932;2022-11-30T12:22:40;39.80;;;29.53;;
7074;SDS011;3578;51.568;6.932;2022-11-30T12:25:25;33.37;;;26.97;;
7074;SDS011;3578;51.568;6.932;2022-11-30T12:27:59;39.30;;;26.87;;
7074;SDS011;3578;51.568;6.932;2022-11-30T12:30:43;31.47;;;25.63;;
7074;SDS011;3578;51.568;6.932;2022-11-30T12:33:24;30.37;;;24.53;;
7074;SDS011;3578;51.568;6.932;2022-11-30T12:36:07;28.20;;;23.03;;
7074;SDS011;3578;51.568;6.932;2022-11-30T12:38:45;27.30;;;22.87;;
7074;SDS011;3578;51.568;6.932;2022-11-30T12:41:27;23.63;;;21.13;;
7074;SDS011;3578;51.568;6.932;2022-11-30T12:44:04;24.00;;;21.40;;
7074;SDS011;3578;51.568;6.932;2022-11-30T12:46:54;26.07;;;20.00;;
7074;SDS011;3578;51.568;6.932;2022-11-30T12:49:37;23.47;;;20.70;;
7074;SDS011;3578;51.568;6.932;2022-11-30T12:52:24;22.43;;;20.03;;
7074;SDS011;3578;51.568;6.932;2022-11-30T12:55:09;21.80;;;19.70;;
7074;SDS011;3578;51.568;6.932;2022-11-30T12:57:51;21.53;;;19.23;;
7074;SDS011;3578;51.568;6.932;2022-11-30T13:00:28;21.53;;;19.20;;
7074;SDS011;3578;51.568;6.932;2022-11-30T13:06:08;20.97;;;18.20;;
7074;SDS011;3578;51.568;6.932;2022-11-30T13:08:42;20.07;;;18.07;;
7074;SDS011;3578;51.568;6.932;2022-11-30T13:11:18;19.77;;;17.67;;
7074;SDS011;3578;51.568;6.932;2022-11-30T13:13:54;20.67;;;18.57;;
7074;SDS011;3578;51.568;6.932;2022-11-30T13:16:24;21.40;;;19.10;;
7074;SDS011;3578;51.568;6.932;2022-11-30T13:18:55;21.70;;;19.40;;
7074;SDS011;3578;51.568;6.932;2022-11-30T13:21:31;22.27;;;19.87;;
7074;SDS011;3578;51.568;6.932;2022-11-30T13:24:07;21.13;;;18.90;;
7074;SDS011;3578;51.568;6.932;2022-11-30T13:26:41;20.40;;;18.40;;
7074;SDS011;3578;51.568;6.932;2022-11-30T13:29:33;20.87;;;18.63;;
7074;SDS011;3578;51.568;6.932;2022-11-30T13:32:19;20.47;;;18.20;;
7074;SDS011;3578;51.568;6.932;2022-11-30T13:34:46;21.70;;;19.30;;
7074;SDS011;3578;51.568;6.932;2022-11-30T13:37:16;21.57;;;19.27;;
7074;SDS011;3578;51.568;6.932;2022-11-30T13:39:47;23.50;;;19.80;;
7074;SDS011;3578;51.568;6.932;2022-11-30T13:45:26;24.17;;;19.70;;
7074;SDS011;3578;51.568;6.932;2022-11-30T13:47:57;24.50;;;20.20;;
7074;SDS011;3578;51.568;6.932;2022-11-30T13:50:44;21.00;;;18.63;;
7074;SDS011;3578;51.568;6.932;2022-11-30T13:56:01;23.33;;;20.83;;
7074;SDS011;3578;51.568;6.932;2022-11-30T13:58:33;23.33;;;19.77;;
7074;SDS011;3578;51.568;6.932;2022-11-30T14:01:19;24.00;;;20.47;;
7074;SDS011;3578;51.568;6.932;2022-11-30T14:06:57;22.17;;;19.83;;
7074;SDS011;3578;51.568;6.932;2022-11-30T14:15:27;23.40;;;20.43;;
7074;SDS011;3578;51.568;6.932;2022-11-30T14:18:22;24.30;;;20.90;;
7074;SDS011;3578;51.568;6.932;2022-11-30T14:21:14;27.27;;;21.80;;
7074;SDS011;3578;51.568;6.932;2022-11-30T14:23:55;26.13;;;21.10;;
7074;SDS011;3578;51.568;6.932;2022-11-30T14:26:27;25.10;;;21.20;;
7074;SDS011;3578;51.568;6.932;2022-11-30T14:29:01;21.60;;;19.30;;
7074;SDS011;3578;51.568;6.932;2022-11-30T14:31:38;23.30;;;20.10;;
7074;SDS011;3578;51.568;6.932;2022-11-30T14:34:14;23.50;;;20.03;;
7074;SDS011;3578;51.568;6.932;2022-11-30T14:36:47;28.50;;;23.00;;
7074;SDS011;3578;51.568;6.932;2022-11-30T14:39:30;24.27;;;21.53;;
7074;SDS011;3578;51.568;6.932;2022-11-30T14:41:59;25.37;;;20.80;;
7074;SDS011;3578;51.568;6.932;2022-11-30T14:44:32;24.30;;;20.77;;
7074;SDS011;3578;51.568;6.932;2022-11-30T14:47:12;29.20;;;22.07;;
7074;SDS011;3578;51.568;6.932;2022-11-30T14:49:47;24.63;;;21.33;;
7074;SDS011;3578;51.568;6.932;2022-11-30T14:52:19;27.17;;;22.13;;
7074;SDS011;3578;51.568;6.932;2022-11-30T14:55:10;32.60;;;22.27;;
7074;SDS011;3578;51.568;6.932;2022-11-30T14:57:50;28.03;;;22.30;;
7074;SDS011;3578;51.568;6.932;2022-11-30T15:00:24;29.30;;;23.90;;
7074;SDS011;3578;51.568;6.932;2022-11-30T15:02:53;30.10;;;23.30;;
7074;SDS011;3578;51.568;6.932;2022-11-30T15:05:21;31.33;;;24.03;;
7074;SDS011;3578;51.568;6.932;2022-11-30T15:07:51;30.03;;;23.47;;
7074;SDS011;3578;51.568;6.932;2022-11-30T15:10:22;26.43;;;22.60;;
7074;SDS011;3578;51.568;6.932;2022-11-30T15:12:55;31.30;;;23.60;;
7074;SDS011;3578;51.568;6.932;2022-11-30T15:15:24;27.77;;;23.90;;
7074;SDS011;3578;51.568;6.932;2022-11-30T15:17:54;29.37;;;22.00;;
7074;SDS011;3578;51.568;6.932;2022-11-30T15:20:25;26.07;;;21.80;;
7074;SDS011;3578;51.568;6.932;2022-11-30T15:22:55;28.77;;;22.93;;
7074;SDS011;3578;51.568;6.932;2022-11-30T15:25:24;29.40;;;22.17;;
7074;SDS011;3578;51.568;6.932;2022-11-30T15:28:00;26.87;;;21.30;;
7074;SDS011;3578;51.568;6.932;2022-11-30T15:30:28;25.40;;;21.40;;